createdAt,value
2023-05-11T00:02:45.639Z,7.78
2023-05-11T00:05:30.719Z,4.05
2023-05-11T00:08:17.382Z,7.18
2023-05-11T00:11:02.507Z,6.32
2023-05-11T00:13:47.684Z,5.30
2023-05-11T00:16:33.123Z,7.43
2023-05-11T00:19:17.860Z,6.00
2023-05-11T00:22:03.572Z,4.00
2023-05-11T00:24:48.638Z,6.93
2023-05-11T00:27:33.949Z,4.15
2023-05-11T00:30:19.554Z,5.53
2023-05-11T00:33:05.401Z,6.72
2023-05-11T00:35:51.093Z,5.00
2023-05-11T00:38:40.417Z,3.35
2023-05-11T00:41:25.935Z,4.40
2023-05-11T00:44:11.343Z,3.20
2023-05-11T00:46:57.673Z,2.58
2023-05-11T00:49:44.018Z,4.38
2023-05-11T00:52:29.933Z,5.82
2023-05-11T00:55:18.532Z,5.45
2023-05-11T00:58:05.641Z,5.97
2023-05-11T01:00:51.012Z,4.90
2023-05-11T01:03:36.718Z,4.43
2023-05-11T01:06:36.144Z,6.22
2023-05-11T01:09:35.890Z,5.85
2023-05-11T01:12:46.090Z,8.75
2023-05-11T01:15:58.543Z,6.60
2023-05-11T01:18:58.419Z,4.18
2023-05-11T01:21:46.213Z,4.40
2023-05-11T01:25:05.532Z,5.97
2023-05-11T01:28:15.375Z,4.85
2023-05-11T01:34:13.831Z,4.90
2023-05-11T01:37:10.398Z,6.00
2023-05-11T01:39:59.005Z,6.13
2023-05-11T01:42:53.793Z,6.97
2023-05-11T01:45:43.435Z,5.93
2023-05-11T01:48:31.930Z,6.25
2023-05-11T01:51:19.303Z,3.95
2023-05-11T01:54:09.387Z,4.28
2023-05-11T01:59:41.258Z,2.92
2023-05-11T02:02:27.300Z,8.68
2023-05-11T02:05:22.564Z,10.15
2023-05-11T02:08:09.706Z,5.40
2023-05-11T02:10:56.151Z,6.63
2023-05-11T02:13:43.518Z,5.68
2023-05-11T02:16:31.985Z,7.28
2023-05-11T02:19:17.822Z,5.60
2023-05-11T02:22:04.972Z,4.03
2023-05-11T02:24:50.216Z,8.55
2023-05-11T02:27:38.772Z,2.83
2023-05-11T02:30:27.068Z,3.22
2023-05-11T02:33:17.842Z,3.63
2023-05-11T02:36:05.539Z,9.60
2023-05-11T02:38:58.265Z,8.25
2023-05-11T02:41:46.045Z,5.10
2023-05-11T02:44:36.287Z,6.15
2023-05-11T02:47:23.173Z,3.00
2023-05-11T02:50:09.642Z,5.78
2023-05-11T02:52:57.767Z,4.55
2023-05-11T02:55:42.937Z,3.92
2023-05-11T02:58:29.950Z,3.88
2023-05-11T03:01:15.475Z,5.97
2023-05-11T03:04:04.296Z,4.80
2023-05-11T03:06:49.845Z,7.90
2023-05-11T03:09:35.251Z,6.10
2023-05-11T03:12:21.330Z,7.65
2023-05-11T03:15:07.731Z,8.15
2023-05-11T03:17:53.813Z,12.02
2023-05-11T03:20:42.084Z,8.88
2023-05-11T03:23:27.964Z,7.13
2023-05-11T03:26:13.603Z,6.90
2023-05-11T03:29:00.212Z,9.05
2023-05-11T03:31:45.601Z,2.70
2023-05-11T03:34:30.914Z,6.85
2023-05-11T03:37:18.033Z,6.25
2023-05-11T03:40:04.091Z,4.68
2023-05-11T03:42:52.510Z,5.78
2023-05-11T03:45:39.221Z,9.55
2023-05-11T03:48:24.521Z,5.18
2023-05-11T03:51:11.024Z,3.90
2023-05-11T03:53:56.410Z,8.98
2023-05-11T03:56:41.503Z,6.05
2023-05-11T03:59:26.485Z,5.40
2023-05-11T04:02:11.574Z,4.45
2023-05-11T04:04:56.684Z,3.90
2023-05-11T04:07:41.631Z,8.30
2023-05-11T04:10:26.641Z,6.00
2023-05-11T04:13:11.882Z,8.00
2023-05-11T04:15:56.692Z,7.03
2023-05-11T04:18:41.697Z,5.20
2023-05-11T04:21:26.490Z,8.43
2023-05-11T04:24:11.768Z,6.57
2023-05-11T04:26:57.532Z,8.18
2023-05-11T04:29:42.902Z,7.10
2023-05-11T04:32:29.220Z,9.13
2023-05-11T04:35:14.444Z,7.32
2023-05-11T04:37:59.787Z,7.07
2023-05-11T04:40:44.553Z,6.28
2023-05-11T04:43:29.592Z,5.53
2023-05-11T04:46:15.295Z,7.65
2023-05-11T04:49:00.517Z,4.82
2023-05-11T04:51:45.840Z,5.32
2023-05-11T04:54:31.189Z,10.57
2023-05-11T04:57:16.539Z,7.00
2023-05-11T05:00:01.828Z,5.93
2023-05-11T05:02:46.780Z,9.90
2023-05-11T05:05:31.815Z,8.25
2023-05-11T05:08:18.663Z,8.00
2023-05-11T05:11:03.970Z,5.65
2023-05-11T05:13:48.868Z,7.05
2023-05-11T05:16:34.124Z,8.52
2023-05-11T05:19:19.401Z,6.80
2023-05-11T05:22:05.308Z,5.68
2023-05-11T05:24:50.640Z,7.70
2023-05-11T05:27:35.597Z,8.55
2023-05-11T05:30:20.777Z,7.82
2023-05-11T05:33:05.942Z,10.35
2023-05-11T05:35:50.997Z,7.30
2023-05-11T05:38:36.378Z,12.40
2023-05-11T05:41:22.293Z,10.57
2023-05-11T05:44:07.544Z,8.07
2023-05-11T05:46:52.812Z,14.27
2023-05-11T05:49:38.184Z,15.10
2023-05-11T05:52:23.335Z,11.50
2023-05-11T05:55:08.769Z,15.70
2023-05-11T05:57:53.949Z,9.45
2023-05-11T06:00:39.251Z,9.82
2023-05-11T06:03:25.844Z,16.27
2023-05-11T06:06:12.961Z,15.85
2023-05-11T06:08:58.122Z,19.55
2023-05-11T06:11:43.124Z,17.73
2023-05-11T06:14:28.186Z,15.32
2023-05-11T06:17:13.306Z,14.90
2023-05-11T06:19:58.489Z,14.05
2023-05-11T06:22:43.614Z,20.80
2023-05-11T06:25:28.977Z,14.27
2023-05-11T06:28:14.217Z,10.75
2023-05-11T06:30:59.537Z,20.50
2023-05-11T06:33:44.658Z,17.35
2023-05-11T06:36:29.701Z,16.20
2023-05-11T06:39:14.769Z,15.75
2023-05-11T06:42:02.956Z,16.08
2023-05-11T06:44:50.217Z,15.70
2023-05-11T06:47:35.745Z,15.73
2023-05-11T06:50:21.606Z,18.58
2023-05-11T06:53:08.103Z,21.65
2023-05-11T06:55:54.723Z,16.15
2023-05-11T06:58:39.968Z,16.23
2023-05-11T07:01:25.178Z,18.63
2023-05-11T07:04:10.508Z,15.02
2023-05-11T07:06:55.562Z,16.92
2023-05-11T07:09:42.109Z,23.88
2023-05-11T07:12:27.228Z,15.15
2023-05-11T07:15:12.517Z,20.42
2023-05-11T07:17:57.783Z,21.08
2023-05-11T07:20:43.055Z,18.05
2023-05-11T07:23:28.248Z,15.50
2023-05-11T07:26:13.128Z,20.40
2023-05-11T07:28:58.347Z,18.92
2023-05-11T07:31:44.061Z,20.67
2023-05-11T07:34:29.294Z,13.30
2023-05-11T07:37:14.304Z,16.60
2023-05-11T07:39:59.575Z,16.02
2023-05-11T07:42:44.795Z,15.77
2023-05-11T07:45:30.081Z,13.13
2023-05-11T07:48:15.312Z,13.00
2023-05-11T07:51:01.560Z,13.18
2023-05-11T07:53:46.724Z,12.98
2023-05-11T07:56:31.867Z,17.35
2023-05-11T07:59:16.796Z,17.05
2023-05-11T08:02:01.946Z,13.20
2023-05-11T08:04:47.076Z,9.85
2023-05-11T08:07:32.435Z,18.52
2023-05-11T08:10:17.351Z,13.30
2023-05-11T08:13:02.585Z,12.90
2023-05-11T08:15:48.243Z,19.55
2023-05-11T08:18:33.176Z,9.57
2023-05-11T08:21:18.626Z,13.43
2023-05-11T08:24:03.890Z,13.55
2023-05-11T08:26:49.707Z,14.45
2023-05-11T08:29:34.852Z,13.27
2023-05-11T08:32:20.187Z,16.83
2023-05-11T08:35:06.076Z,13.63
2023-05-11T08:37:51.521Z,11.95
2023-05-11T08:40:37.072Z,9.73
2023-05-11T08:43:23.231Z,9.93
2023-05-11T08:46:11.153Z,16.52
2023-05-11T08:48:58.230Z,10.77
2023-05-11T08:51:43.492Z,12.23
2023-05-11T08:54:28.784Z,9.57
2023-05-11T08:57:14.841Z,10.55
2023-05-11T09:00:02.149Z,16.40
2023-05-11T09:02:48.371Z,11.98
2023-05-11T09:05:36.259Z,8.65
2023-05-11T09:08:22.705Z,10.13
2023-05-11T09:11:08.271Z,11.90
2023-05-11T09:13:53.754Z,13.57
2023-05-11T09:16:38.747Z,10.50
2023-05-11T09:19:24.124Z,10.35
2023-05-11T09:22:09.293Z,14.40
2023-05-11T09:24:54.567Z,9.25
2023-05-11T09:27:47.204Z,5.63
2023-05-11T09:30:34.023Z,9.65
2023-05-11T09:33:24.479Z,9.43
2023-05-11T09:36:23.382Z,11.68
2023-05-11T09:39:15.397Z,7.47
2023-05-11T09:42:21.532Z,7.20
2023-05-11T09:45:08.651Z,9.15
2023-05-11T09:47:53.943Z,8.25
2023-05-11T09:50:38.943Z,5.70
2023-05-11T09:53:42.662Z,12.98
2023-05-11T09:56:48.096Z,9.43
2023-05-11T09:59:38.177Z,8.15
2023-05-11T10:02:28.007Z,6.80
2023-05-11T10:08:00.797Z,9.30
2023-05-11T10:10:46.030Z,10.25
2023-05-11T10:13:32.658Z,7.68
2023-05-11T10:16:19.375Z,8.05
2023-05-11T10:19:04.726Z,8.70
2023-05-11T10:21:52.379Z,6.03
2023-05-11T10:24:38.830Z,6.40
2023-05-11T10:27:24.505Z,8.63
2023-05-11T10:30:10.937Z,9.32
2023-05-11T10:32:57.472Z,4.10
2023-05-11T10:35:45.110Z,4.15
2023-05-11T10:38:30.183Z,4.50
2023-05-11T10:41:55.676Z,5.55
2023-05-11T10:45:02.267Z,4.35
2023-05-11T10:48:12.161Z,4.75
2023-05-11T10:51:16.093Z,3.67
2023-05-11T10:54:16.611Z,2.80
2023-05-11T10:57:30.992Z,4.95
2023-05-11T11:01:13.383Z,3.88
2023-05-11T11:04:05.685Z,7.38
2023-05-11T11:07:07.024Z,4.95
2023-05-11T11:09:57.111Z,7.70
2023-05-11T11:13:01.873Z,6.28
2023-05-11T11:15:53.487Z,7.25
2023-05-11T11:18:38.691Z,6.13
2023-05-11T11:21:41.532Z,6.10
2023-05-11T11:24:39.049Z,5.55
2023-05-11T11:27:43.659Z,4.63
2023-05-11T11:30:30.580Z,6.63
2023-05-11T11:33:16.194Z,1.77
2023-05-11T11:36:01.622Z,3.25
2023-05-11T11:39:00.254Z,2.05
2023-05-11T11:41:46.370Z,1.05
2023-05-11T11:44:33.479Z,1.65
2023-05-11T11:47:20.470Z,4.00
2023-05-11T11:50:13.156Z,3.40
2023-05-11T11:52:58.338Z,1.42
2023-05-11T11:55:48.710Z,0.90
2023-05-11T11:58:46.227Z,1.75
2023-05-11T12:01:37.481Z,1.38
2023-05-11T12:04:45.034Z,0.47
2023-05-11T12:07:34.303Z,0.93
2023-05-11T12:10:21.932Z,1.45
2023-05-11T12:13:09.592Z,1.38
2023-05-11T12:16:12.382Z,0.80
2023-05-11T12:19:01.733Z,1.40
2023-05-11T12:24:32.158Z,0.43
2023-05-11T12:27:19.019Z,0.90
2023-05-11T12:30:04.661Z,0.50
2023-05-11T12:32:56.528Z,1.10
2023-05-11T12:35:45.536Z,0.68
2023-05-11T12:38:30.472Z,1.08
2023-05-11T12:41:22.799Z,1.48
2023-05-11T12:44:07.987Z,1.20
2023-05-11T12:46:53.672Z,5.78
2023-05-11T12:49:41.588Z,3.63
2023-05-11T12:52:26.647Z,0.65
2023-05-11T12:55:11.894Z,2.05
2023-05-11T12:58:16.096Z,2.88
2023-05-11T13:01:01.630Z,1.00
2023-05-11T13:03:47.858Z,1.48
2023-05-11T13:06:33.450Z,1.45
2023-05-11T13:09:24.096Z,3.28
2023-05-11T13:12:20.766Z,1.17
2023-05-11T13:15:13.820Z,1.23
2023-05-11T13:18:00.772Z,1.15
2023-05-11T13:20:46.496Z,3.15
2023-05-11T13:23:31.766Z,1.05
2023-05-11T13:26:29.138Z,0.88
2023-05-11T13:29:14.344Z,7.57
2023-05-11T13:31:59.700Z,3.50
2023-05-11T13:34:44.928Z,1.65
2023-05-11T13:37:30.327Z,1.73
2023-05-11T13:40:15.353Z,2.13
2023-05-11T13:43:00.817Z,3.97
2023-05-11T13:45:46.215Z,2.72
2023-05-11T13:48:32.292Z,1.80
2023-05-11T13:51:17.482Z,2.28
2023-05-11T13:54:02.599Z,1.30
2023-05-11T13:56:48.243Z,4.50
2023-05-11T13:59:33.124Z,2.58
2023-05-11T14:02:18.024Z,3.15
2023-05-11T14:05:03.018Z,4.40
2023-05-11T14:07:49.145Z,5.32
2023-05-11T14:10:34.682Z,1.85
2023-05-11T14:13:19.601Z,1.73
2023-05-11T14:16:05.339Z,1.60
2023-05-11T14:18:50.757Z,2.92
2023-05-11T14:21:36.632Z,3.22
2023-05-11T14:24:22.586Z,3.03
2023-05-11T14:27:07.626Z,4.20
2023-05-11T14:29:52.706Z,3.60
2023-05-11T14:32:37.831Z,4.80
2023-05-11T14:35:22.884Z,4.13
2023-05-11T14:38:07.841Z,1.60
2023-05-11T14:40:52.763Z,4.03
2023-05-11T14:43:39.936Z,3.33
2023-05-11T14:46:26.710Z,5.07
2023-05-11T14:49:12.435Z,2.00
2023-05-11T14:51:58.044Z,2.88
2023-05-11T14:54:43.199Z,2.85
2023-05-11T14:57:28.357Z,0.95
2023-05-11T15:00:14.001Z,4.82
2023-05-11T15:02:59.213Z,1.65
2023-05-11T15:05:46.591Z,0.80
2023-05-11T15:08:32.555Z,1.65
2023-05-11T15:11:18.509Z,2.30
2023-05-11T15:14:11.806Z,1.95
2023-05-11T15:16:59.530Z,3.35
2023-05-11T15:19:44.655Z,2.20
2023-05-11T15:22:29.996Z,1.88
2023-05-11T15:25:15.091Z,1.98
2023-05-11T15:28:00.606Z,1.45
2023-05-11T15:30:47.016Z,1.02
2023-05-11T15:33:33.299Z,4.47
2023-05-11T15:36:18.562Z,1.63
2023-05-11T15:39:03.980Z,2.60
2023-05-11T15:41:49.059Z,4.40
2023-05-11T15:44:35.190Z,1.95
2023-05-11T15:47:20.501Z,2.08
2023-05-11T15:50:06.468Z,1.30
2023-05-11T15:52:51.530Z,3.17
2023-05-11T15:55:37.192Z,1.35
2023-05-11T15:58:22.791Z,4.22
2023-05-11T16:01:08.147Z,2.67
2023-05-11T16:03:53.205Z,1.42
2023-05-11T16:06:38.281Z,2.28
2023-05-11T16:09:23.473Z,2.92
2023-05-11T16:12:08.973Z,2.70
2023-05-11T16:14:53.786Z,6.18
2023-05-11T16:17:38.962Z,3.13
2023-05-11T16:20:24.299Z,1.00
2023-05-11T16:23:09.425Z,2.00
2023-05-11T16:25:56.332Z,2.22
2023-05-11T16:28:42.636Z,3.13
2023-05-11T16:31:27.711Z,3.33
2023-05-11T16:34:12.515Z,2.28
2023-05-11T16:36:59.201Z,3.55
2023-05-11T16:39:44.814Z,1.55
2023-05-11T16:42:30.209Z,3.08
2023-05-11T16:45:16.505Z,2.25
2023-05-11T16:48:02.033Z,2.40
2023-05-11T16:50:47.532Z,1.92
2023-05-11T16:53:32.493Z,3.35
2023-05-11T16:56:18.085Z,1.20
2023-05-11T16:59:03.660Z,2.00
2023-05-11T17:01:49.390Z,2.63
2023-05-11T17:04:34.917Z,3.13
2023-05-11T17:07:19.941Z,1.90
2023-05-11T17:10:05.713Z,2.35
2023-05-11T17:12:51.265Z,1.55
2023-05-11T17:15:36.511Z,2.40
2023-05-11T17:18:22.053Z,3.10
2023-05-11T17:21:07.145Z,5.00
2023-05-11T17:23:53.088Z,3.38
2023-05-11T17:26:47.061Z,1.83
2023-05-11T17:29:33.453Z,3.53
2023-05-11T17:32:18.903Z,2.50
2023-05-11T17:35:04.661Z,2.70
2023-05-11T17:37:49.793Z,4.57
2023-05-11T17:40:35.061Z,2.85
2023-05-11T17:43:20.350Z,4.05
2023-05-11T17:46:05.521Z,4.85
2023-05-11T17:48:52.530Z,1.90
2023-05-11T17:51:37.865Z,4.55
2023-05-11T17:54:22.991Z,2.35
2023-05-11T17:57:08.189Z,3.65
2023-05-11T17:59:53.514Z,5.78
2023-05-11T18:02:38.775Z,3.58
2023-05-11T18:05:33.427Z,2.97
2023-05-11T18:08:26.067Z,2.20
2023-05-11T18:11:12.645Z,4.55
2023-05-11T18:13:57.615Z,7.03
2023-05-11T18:16:43.468Z,2.83
2023-05-11T18:19:28.886Z,4.38
2023-05-11T18:22:14.138Z,2.55
2023-05-11T18:24:59.518Z,3.95
2023-05-11T18:27:44.712Z,5.93
2023-05-11T18:30:30.574Z,2.88
2023-05-11T18:33:15.644Z,4.68
2023-05-11T18:36:02.025Z,3.67
2023-05-11T18:38:48.862Z,2.60
2023-05-11T18:41:34.600Z,6.28
2023-05-11T18:44:19.752Z,4.00
2023-05-11T18:47:05.458Z,2.50
2023-05-11T18:49:51.100Z,4.95
2023-05-11T18:52:36.211Z,6.13
2023-05-11T18:55:21.240Z,3.20
2023-05-11T18:58:06.640Z,8.07
2023-05-11T19:00:52.178Z,4.70
2023-05-11T19:03:38.480Z,6.38
2023-05-11T19:06:23.890Z,2.97
2023-05-11T19:09:08.959Z,3.78
2023-05-11T19:11:54.295Z,5.00
2023-05-11T19:14:39.772Z,5.22
2023-05-11T19:17:25.055Z,2.95
2023-05-11T19:20:11.782Z,3.42
2023-05-11T19:22:57.609Z,4.13
2023-05-11T19:25:42.867Z,4.28
2023-05-11T19:28:27.958Z,5.45
2023-05-11T19:31:13.404Z,5.90
2023-05-11T19:33:59.056Z,3.70
2023-05-11T19:36:43.963Z,6.32
2023-05-11T19:39:28.919Z,5.05
2023-05-11T19:42:14.049Z,4.53
2023-05-11T19:44:59.142Z,6.35
2023-05-11T19:47:44.671Z,3.83
2023-05-11T19:50:29.896Z,3.75
2023-05-11T19:53:15.301Z,4.68
2023-05-11T19:56:00.575Z,5.20
2023-05-11T19:58:45.713Z,3.80
2023-05-11T20:01:30.696Z,5.95
2023-05-11T20:04:15.625Z,7.43
2023-05-11T20:07:00.882Z,6.30
2023-05-11T20:09:45.982Z,3.05
2023-05-11T20:12:31.435Z,2.63
2023-05-11T20:15:17.070Z,3.92
2023-05-11T20:18:04.920Z,3.72
2023-05-11T20:20:49.909Z,3.53
2023-05-11T20:23:36.605Z,3.63
2023-05-11T20:26:22.793Z,10.20
2023-05-11T20:29:09.262Z,4.05
2023-05-11T20:31:54.418Z,9.05
2023-05-11T20:34:39.854Z,5.28
2023-05-11T20:37:24.821Z,7.95
2023-05-11T20:40:10.316Z,6.13
2023-05-11T20:42:55.210Z,5.88
2023-05-11T20:45:40.388Z,4.75
2023-05-11T20:48:36.187Z,4.03
2023-05-11T20:51:25.115Z,6.28
2023-05-11T20:54:11.555Z,6.95
2023-05-11T20:56:56.463Z,6.90
2023-05-11T21:02:29.974Z,3.85
2023-05-11T21:05:15.295Z,3.78
2023-05-11T21:08:00.670Z,4.30
2023-05-11T21:10:45.449Z,5.90
2023-05-11T21:13:30.705Z,6.18
2023-05-11T21:16:16.005Z,4.90
2023-05-11T21:19:01.297Z,5.65
2023-05-11T21:21:49.425Z,7.20
2023-05-11T21:24:37.536Z,3.30
2023-05-11T21:27:22.617Z,7.43
2023-05-11T21:30:09.212Z,3.72
2023-05-11T21:32:54.210Z,5.50
2023-05-11T21:35:39.173Z,5.53
2023-05-11T21:38:24.293Z,5.00
2023-05-11T21:41:09.558Z,4.43
2023-05-11T21:43:54.415Z,3.92
2023-05-11T21:46:39.331Z,6.90
2023-05-11T21:49:24.262Z,3.08
2023-05-11T21:52:09.758Z,3.25
2023-05-11T21:54:54.729Z,3.20
2023-05-11T21:57:39.771Z,3.13
2023-05-11T22:00:25.159Z,3.80
2023-05-11T22:03:10.412Z,3.28
2023-05-11T22:05:55.816Z,4.72
2023-05-11T22:08:40.894Z,3.17
2023-05-11T22:11:26.734Z,5.28
2023-05-11T22:14:11.957Z,3.08
2023-05-11T22:16:57.323Z,2.90
2023-05-11T22:19:42.502Z,3.90
2023-05-11T22:22:27.564Z,3.95
2023-05-11T22:25:12.850Z,4.00
2023-05-11T22:27:58.287Z,3.60
2023-05-11T22:30:43.176Z,3.75
2023-05-11T22:33:28.095Z,3.63
2023-05-11T22:36:13.047Z,3.63
2023-05-11T22:38:58.247Z,3.40
2023-05-11T22:41:43.219Z,3.08
2023-05-11T22:44:28.352Z,4.32
2023-05-11T22:47:13.745Z,3.58
2023-05-11T22:49:58.844Z,4.60
2023-05-11T22:52:43.794Z,4.38
2023-05-11T22:55:28.851Z,6.93
2023-05-11T22:58:14.501Z,5.07
2023-05-11T23:01:00.602Z,4.97
2023-05-11T23:03:46.544Z,4.00
2023-05-11T23:06:46.646Z,3.35
2023-05-11T23:09:31.984Z,3.38
2023-05-11T23:12:17.515Z,4.00
2023-05-11T23:15:02.645Z,5.45
2023-05-11T23:17:47.991Z,3.25
2023-05-11T23:20:33.281Z,3.00
2023-05-11T23:23:18.381Z,5.07
2023-05-11T23:26:03.388Z,3.33
2023-05-11T23:28:48.557Z,5.82
2023-05-11T23:31:34.245Z,2.60
2023-05-11T23:34:19.564Z,4.50
2023-05-11T23:37:04.740Z,2.88
2023-05-11T23:39:49.759Z,3.25
2023-05-11T23:42:35.061Z,5.57
2023-05-11T23:45:20.174Z,4.18
2023-05-11T23:48:06.066Z,2.57
2023-05-11T23:50:51.371Z,3.13
2023-05-11T23:53:36.663Z,5.15
2023-05-11T23:56:21.631Z,3.10
2023-05-11T23:59:06.689Z,3.42
